createdAt,value
2017-12-16T00:01:20.759Z,11.62
2017-12-16T00:03:47.274Z,11.61
2017-12-16T00:06:13.728Z,11.72
2017-12-16T00:08:40.093Z,11.49
2017-12-16T00:11:06.857Z,11.59
2017-12-16T00:13:33.294Z,11.61
2017-12-16T00:15:59.676Z,11.58
2017-12-16T00:18:26.133Z,11.65
2017-12-16T00:20:52.645Z,11.70
2017-12-16T00:23:19.045Z,11.60
2017-12-16T00:25:45.657Z,11.75
2017-12-16T00:28:12.137Z,11.84
2017-12-16T00:30:38.666Z,11.84
2017-12-16T00:33:05.112Z,11.90
2017-12-16T00:35:31.578Z,11.90
2017-12-16T00:37:58.048Z,12.14
2017-12-16T00:40:24.448Z,12.24
2017-12-16T00:42:50.901Z,12.23
2017-12-16T00:45:17.422Z,12.16
2017-12-16T00:47:44.186Z,12.13
2017-12-16T00:50:10.621Z,11.98
2017-12-16T00:52:37.098Z,12.06
2017-12-16T00:55:03.555Z,11.88
2017-12-16T00:57:30.042Z,12.00
2017-12-16T00:59:56.588Z,11.93
2017-12-16T01:02:23.014Z,12.01
2017-12-16T01:04:49.444Z,11.95
2017-12-16T01:07:15.893Z,12.04
2017-12-16T01:09:42.317Z,12.23
2017-12-16T01:12:08.850Z,12.13
2017-12-16T01:14:35.250Z,12.11
2017-12-16T01:17:01.643Z,12.12
2017-12-16T01:19:28.174Z,12.04
2017-12-16T01:21:54.585Z,11.97
2017-12-16T01:24:20.979Z,12.09
2017-12-16T01:26:47.395Z,12.07
2017-12-16T01:29:13.837Z,12.24
2017-12-16T01:31:40.235Z,12.30
2017-12-16T01:34:19.107Z,12.23
2017-12-16T01:50:14.817Z,11.94
2017-12-16T01:52:41.233Z,11.93
2017-12-16T01:55:07.805Z,12.05
2017-12-16T01:57:34.289Z,12.03
2017-12-16T02:00:00.729Z,12.31
2017-12-16T02:02:27.393Z,12.28
2017-12-16T02:04:54.004Z,12.38
2017-12-16T02:07:20.501Z,12.40
2017-12-16T02:09:46.939Z,12.32
2017-12-16T02:12:13.413Z,12.46
2017-12-16T02:14:39.916Z,12.37
2017-12-16T02:17:06.355Z,12.41
2017-12-16T02:19:32.818Z,12.35
2017-12-16T02:21:59.289Z,12.40
2017-12-16T02:24:25.777Z,12.41
2017-12-16T02:26:52.257Z,12.55
2017-12-16T02:29:18.706Z,12.47
2017-12-16T02:31:45.137Z,12.47
2017-12-16T02:34:11.717Z,12.34
2017-12-16T02:36:38.148Z,12.36
2017-12-16T02:39:04.617Z,12.18
2017-12-16T02:41:31.119Z,12.09
2017-12-16T02:43:57.650Z,12.10
2017-12-16T02:46:24.114Z,12.13
2017-12-16T02:48:50.669Z,12.06
2017-12-16T02:51:17.166Z,12.12
2017-12-16T02:53:43.604Z,12.06
2017-12-16T02:56:10.130Z,12.05
2017-12-16T02:58:36.626Z,12.13
2017-12-16T03:01:03.135Z,12.24
2017-12-16T03:03:29.701Z,12.20
2017-12-16T03:05:56.261Z,12.20
2017-12-16T03:08:22.731Z,12.16
2017-12-16T03:10:49.285Z,12.04
2017-12-16T03:13:15.838Z,11.99
2017-12-16T03:15:43.530Z,12.11
2017-12-16T03:18:09.977Z,12.10
2017-12-16T03:20:36.546Z,12.14
2017-12-16T03:23:03.017Z,12.18
2017-12-16T03:25:29.517Z,12.18
2017-12-16T03:27:56.002Z,12.15
2017-12-16T03:30:22.495Z,12.18
2017-12-16T03:32:49.009Z,12.16
2017-12-16T03:35:15.522Z,12.20
2017-12-16T03:37:41.978Z,12.19
2017-12-16T03:40:08.682Z,12.33
2017-12-16T03:42:35.232Z,12.23
2017-12-16T03:45:01.833Z,12.31
2017-12-16T03:47:28.409Z,12.30
2017-12-16T03:49:54.917Z,12.10
2017-12-16T03:52:21.577Z,12.01
2017-12-16T03:54:48.197Z,11.92
2017-12-16T03:57:14.834Z,12.10
2017-12-16T03:59:41.350Z,12.03
2017-12-16T04:02:07.833Z,12.05
2017-12-16T04:04:34.280Z,12.12
2017-12-16T04:07:00.725Z,12.08
2017-12-16T04:09:27.232Z,12.16
2017-12-16T04:11:53.678Z,12.10
2017-12-16T04:14:20.139Z,12.18
2017-12-16T04:16:46.629Z,12.19
2017-12-16T04:19:13.122Z,12.18
2017-12-16T04:21:39.789Z,12.30
2017-12-16T04:24:06.369Z,12.28
2017-12-16T04:26:33.058Z,12.21
2017-12-16T04:28:59.546Z,12.28
2017-12-16T04:31:26.071Z,12.32
2017-12-16T04:33:52.868Z,12.30
2017-12-16T04:36:19.435Z,12.45
2017-12-16T04:38:45.953Z,12.62
2017-12-16T04:41:12.501Z,12.54
2017-12-16T04:43:39.142Z,12.52
2017-12-16T04:46:05.645Z,12.58
2017-12-16T04:48:32.187Z,12.58
2017-12-16T04:50:58.874Z,12.55
2017-12-16T04:53:25.358Z,12.56
2017-12-16T04:55:51.949Z,12.57
2017-12-16T04:58:18.413Z,12.52
2017-12-16T05:00:45.138Z,12.58
2017-12-16T05:03:11.709Z,12.54
2017-12-16T05:05:38.318Z,12.54
2017-12-16T05:08:05.064Z,12.53
2017-12-16T05:10:31.522Z,12.58
2017-12-16T05:12:57.994Z,12.61
2017-12-16T05:15:24.517Z,12.65
2017-12-16T05:17:51.993Z,12.61
2017-12-16T05:20:18.431Z,12.65
2017-12-16T05:22:45.093Z,12.58
2017-12-16T05:25:11.680Z,12.56
2017-12-16T05:27:38.145Z,12.46
2017-12-16T05:30:04.650Z,12.50
2017-12-16T05:32:31.084Z,12.42
2017-12-16T05:34:57.558Z,12.42
2017-12-16T05:37:24.162Z,12.41
2017-12-16T05:39:51.224Z,12.50
2017-12-16T05:42:17.677Z,12.47
2017-12-16T05:44:44.125Z,12.54
2017-12-16T05:47:10.561Z,12.64
2017-12-16T05:49:37.032Z,12.56
2017-12-16T05:52:03.554Z,12.60
2017-12-16T05:54:30.037Z,12.55
2017-12-16T05:56:56.529Z,12.59
2017-12-16T05:59:23.037Z,12.65
2017-12-16T06:01:49.494Z,12.65
2017-12-16T06:04:16.071Z,12.42
2017-12-16T06:06:42.565Z,12.49
2017-12-16T06:09:09.038Z,12.25
2017-12-16T06:11:36.233Z,12.41
2017-12-16T06:14:03.821Z,12.48
2017-12-16T06:16:30.424Z,12.57
2017-12-16T06:18:56.897Z,12.49
2017-12-16T06:21:23.426Z,12.38
2017-12-16T06:23:49.925Z,12.43
2017-12-16T06:26:16.642Z,12.44
2017-12-16T06:28:43.201Z,12.76
2017-12-16T06:31:09.653Z,12.75
2017-12-16T06:33:36.065Z,12.74
2017-12-16T06:36:02.668Z,12.79
2017-12-16T06:38:29.185Z,12.78
2017-12-16T06:40:55.866Z,13.03
2017-12-16T06:43:22.409Z,12.91
2017-12-16T06:45:48.906Z,12.88
2017-12-16T06:48:15.393Z,12.83
2017-12-16T06:50:42.069Z,12.70
2017-12-16T06:53:08.562Z,12.81
2017-12-16T06:55:35.052Z,12.85
2017-12-16T06:58:02.214Z,12.95
2017-12-16T07:00:28.654Z,12.99
2017-12-16T07:02:55.205Z,12.96
2017-12-16T07:05:21.749Z,13.03
2017-12-16T07:07:48.257Z,13.03
2017-12-16T07:10:14.761Z,13.14
2017-12-16T07:12:41.229Z,13.30
2017-12-16T07:15:07.864Z,13.32
2017-12-16T07:17:34.765Z,13.33
2017-12-16T07:20:01.978Z,13.45
2017-12-16T07:22:28.467Z,13.49
2017-12-16T07:24:54.987Z,13.52
2017-12-16T07:27:21.776Z,13.51
2017-12-16T07:29:48.455Z,13.58
2017-12-16T07:32:15.021Z,13.56
2017-12-16T07:34:41.694Z,13.47
2017-12-16T07:37:08.126Z,13.52
2017-12-16T07:39:34.564Z,13.48
2017-12-16T07:42:01.058Z,13.48
2017-12-16T07:44:27.496Z,13.56
2017-12-16T07:46:53.989Z,13.56
2017-12-16T07:49:20.441Z,13.55
2017-12-16T07:51:46.875Z,13.68
2017-12-16T07:54:13.310Z,13.65
2017-12-16T07:56:39.723Z,13.74
2017-12-16T07:59:06.877Z,13.80
2017-12-16T08:01:34.091Z,13.97
2017-12-16T08:04:01.376Z,14.07
2017-12-16T08:06:27.854Z,14.09
2017-12-16T08:08:54.433Z,14.08
2017-12-16T08:11:20.935Z,14.13
2017-12-16T08:13:47.366Z,14.19
2017-12-16T08:16:13.764Z,14.26
2017-12-16T08:18:40.250Z,14.38
2017-12-16T08:21:06.609Z,14.43
2017-12-16T08:23:33.057Z,14.43
2017-12-16T08:26:01.817Z,14.44
2017-12-16T08:28:28.181Z,14.34
2017-12-16T08:30:54.621Z,14.22
2017-12-16T08:33:21.100Z,14.37
2017-12-16T08:35:47.511Z,14.18
2017-12-16T08:38:13.881Z,13.94
2017-12-16T08:40:40.325Z,14.14
2017-12-16T08:43:06.763Z,14.02
2017-12-16T08:45:33.320Z,13.82
2017-12-16T08:47:59.785Z,13.56
2017-12-16T08:50:26.139Z,13.40
2017-12-16T08:52:52.551Z,13.77
2017-12-16T08:55:19.082Z,13.44
2017-12-16T08:57:45.926Z,13.08
2017-12-16T09:00:14.377Z,12.83
2017-12-16T09:02:40.869Z,12.87
2017-12-16T09:05:07.288Z,13.51
2017-12-16T09:07:33.860Z,13.98
2017-12-16T09:10:00.363Z,14.07
2017-12-16T09:12:26.758Z,13.93
2017-12-16T09:14:53.149Z,14.02
2017-12-16T09:17:19.751Z,14.49
2017-12-16T09:19:46.153Z,14.24
2017-12-16T09:22:12.654Z,14.06
2017-12-16T09:24:39.065Z,14.29
2017-12-16T09:27:05.442Z,14.59
2017-12-16T09:29:31.885Z,14.71
2017-12-16T09:31:58.320Z,14.97
2017-12-16T09:34:24.679Z,14.86
2017-12-16T09:36:51.258Z,14.62
2017-12-16T09:39:17.666Z,14.86
2017-12-16T09:41:43.996Z,15.41
2017-12-16T09:44:10.361Z,14.98
2017-12-16T09:46:36.770Z,14.79
2017-12-16T09:49:03.145Z,15.22
2017-12-16T09:51:29.512Z,15.38
2017-12-16T09:53:56.370Z,15.40
2017-12-16T09:56:22.891Z,15.09
2017-12-16T09:58:49.261Z,14.86
2017-12-16T10:01:16.464Z,14.73
2017-12-16T10:03:43.062Z,14.93
2017-12-16T10:06:09.538Z,15.40
2017-12-16T10:08:36.107Z,14.74
2017-12-16T10:11:02.580Z,15.34
2017-12-16T10:13:29.038Z,15.86
2017-12-16T10:15:55.585Z,15.61
2017-12-16T10:18:22.134Z,15.18
2017-12-16T10:20:56.544Z,14.99
2017-12-16T10:23:22.990Z,15.07
2017-12-16T10:25:49.505Z,15.55
2017-12-16T10:28:15.973Z,15.98
2017-12-16T10:30:42.365Z,15.54
2017-12-16T10:33:08.833Z,15.68
2017-12-16T10:35:35.838Z,14.87
2017-12-16T10:38:02.442Z,14.68
2017-12-16T10:40:28.850Z,15.44
2017-12-16T10:42:55.333Z,15.24
2017-12-16T10:45:21.746Z,15.36
2017-12-16T10:47:48.165Z,15.48
2017-12-16T10:50:14.630Z,15.56
2017-12-16T10:52:41.045Z,15.58
2017-12-16T10:55:07.474Z,14.89
2017-12-16T10:57:33.857Z,15.18
2017-12-16T11:00:00.318Z,15.45
2017-12-16T11:02:26.717Z,14.71
2017-12-16T11:04:53.156Z,15.55
2017-12-16T11:07:19.785Z,15.49
2017-12-16T11:09:46.166Z,15.05
2017-12-16T11:12:14.368Z,15.17
2017-12-16T11:14:40.757Z,16.14
2017-12-16T11:17:07.365Z,16.16
2017-12-16T11:19:33.780Z,15.88
2017-12-16T11:22:00.218Z,16.00
2017-12-16T11:24:26.614Z,15.87
2017-12-16T11:26:53.057Z,16.24
2017-12-16T11:29:19.480Z,16.20
2017-12-16T11:31:45.884Z,15.86
2017-12-16T11:34:12.298Z,16.24
2017-12-16T11:36:38.682Z,16.45
2017-12-16T11:39:05.041Z,16.73
2017-12-16T11:41:31.425Z,16.84
2017-12-16T11:43:57.792Z,16.52
2017-12-16T11:46:24.138Z,16.21
2017-12-16T11:48:50.553Z,16.07
2017-12-16T11:51:17.200Z,16.24
2017-12-16T11:53:43.565Z,16.30
2017-12-16T11:56:09.994Z,15.92
2017-12-16T11:58:36.400Z,16.06
2017-12-16T12:01:02.791Z,15.92
2017-12-16T12:03:29.222Z,16.15
2017-12-16T12:05:55.650Z,16.50
2017-12-16T12:08:22.068Z,16.59
2017-12-16T12:10:48.570Z,16.36
2017-12-16T12:13:14.925Z,16.43
2017-12-16T12:15:41.333Z,16.55
2017-12-16T12:18:07.769Z,16.44
2017-12-16T12:20:34.177Z,16.36
2017-12-16T12:23:00.682Z,16.16
2017-12-16T12:25:27.114Z,15.75
2017-12-16T12:27:53.477Z,15.57
2017-12-16T12:30:19.885Z,15.68
2017-12-16T12:32:47.266Z,15.84
2017-12-16T12:35:13.701Z,15.90
2017-12-16T12:37:40.073Z,15.63
2017-12-16T12:40:06.486Z,15.08
2017-12-16T12:42:32.852Z,15.17
2017-12-16T12:44:59.225Z,14.77
2017-12-16T12:47:25.729Z,14.43
2017-12-16T12:49:52.144Z,14.55
2017-12-16T12:52:18.482Z,14.85
2017-12-16T12:54:45.001Z,14.70
2017-12-16T12:57:11.345Z,14.83
2017-12-16T12:59:37.729Z,15.05
2017-12-16T13:02:04.201Z,15.10
2017-12-16T13:04:30.534Z,15.23
2017-12-16T13:06:57.185Z,15.29
2017-12-16T13:09:23.586Z,15.35
2017-12-16T13:11:49.949Z,15.24
2017-12-16T13:14:16.293Z,15.24
2017-12-16T13:16:42.694Z,15.03
2017-12-16T13:19:09.041Z,15.03
2017-12-16T13:21:35.408Z,15.08
2017-12-16T13:24:01.845Z,15.09
2017-12-16T13:26:28.267Z,14.85
2017-12-16T13:28:54.674Z,15.16
2017-12-16T13:31:21.054Z,15.26
2017-12-16T13:33:47.482Z,15.41
2017-12-16T13:36:13.889Z,15.35
2017-12-16T13:38:40.282Z,15.55
2017-12-16T13:41:06.650Z,15.63
2017-12-16T13:43:33.010Z,15.41
2017-12-16T13:45:59.413Z,15.38
2017-12-16T13:48:25.821Z,15.12
2017-12-16T13:50:52.215Z,15.04
2017-12-16T13:53:18.607Z,15.06
2017-12-16T13:55:44.953Z,15.38
2017-12-16T13:58:11.304Z,15.20
2017-12-16T14:00:37.747Z,15.07
2017-12-16T14:03:04.352Z,15.25
2017-12-16T14:05:30.719Z,15.23
2017-12-16T14:07:57.109Z,15.14
2017-12-16T14:10:23.473Z,15.12
2017-12-16T14:12:49.826Z,15.22
2017-12-16T14:15:16.238Z,15.27
2017-12-16T14:17:42.921Z,15.04
2017-12-16T14:20:09.276Z,15.06
2017-12-16T14:22:35.687Z,15.25
2017-12-16T14:25:03.764Z,15.23
2017-12-16T14:27:30.316Z,15.45
2017-12-16T14:29:59.074Z,15.29
2017-12-16T14:32:25.481Z,15.35
2017-12-16T14:34:51.865Z,15.33
2017-12-16T14:37:18.497Z,15.15
2017-12-16T14:39:44.979Z,15.28
2017-12-16T14:42:11.464Z,15.32
2017-12-16T14:44:37.886Z,15.08
2017-12-16T14:47:04.278Z,14.91
2017-12-16T14:49:30.651Z,14.94
2017-12-16T14:51:57.086Z,14.72
2017-12-16T14:54:23.489Z,14.75
2017-12-16T14:56:49.898Z,15.01
2017-12-16T14:59:16.294Z,14.90
2017-12-16T15:01:42.651Z,14.92
2017-12-16T15:04:09.045Z,14.92
2017-12-16T15:06:35.438Z,14.91
2017-12-16T15:09:01.814Z,14.78
2017-12-16T15:11:28.215Z,14.60
2017-12-16T15:13:54.600Z,14.28
2017-12-16T15:16:20.957Z,14.45
2017-12-16T15:18:47.330Z,14.34
2017-12-16T15:21:13.881Z,14.54
2017-12-16T15:23:40.301Z,14.64
2017-12-16T15:26:06.697Z,14.48
2017-12-16T15:28:33.106Z,14.56
2017-12-16T15:30:59.465Z,14.39
2017-12-16T15:33:25.836Z,14.20
2017-12-16T15:35:52.225Z,14.40
2017-12-16T15:38:18.577Z,14.36
2017-12-16T15:40:45.025Z,14.51
2017-12-16T15:43:11.575Z,14.21
2017-12-16T15:45:38.060Z,14.37
2017-12-16T15:48:04.474Z,14.35
2017-12-16T15:50:31.030Z,14.29
2017-12-16T15:52:57.437Z,14.12
2017-12-16T15:55:23.797Z,14.38
2017-12-16T15:57:50.205Z,14.42
2017-12-16T16:00:16.627Z,14.46
2017-12-16T16:02:43.153Z,14.55
2017-12-16T16:05:09.592Z,14.44
2017-12-16T16:07:35.974Z,14.45
2017-12-16T16:10:02.393Z,14.57
2017-12-16T16:12:28.880Z,14.70
2017-12-16T16:14:55.338Z,14.64
2017-12-16T16:17:21.733Z,14.72
2017-12-16T16:19:48.154Z,14.75
2017-12-16T16:22:14.687Z,14.81
2017-12-16T16:24:41.106Z,14.80
2017-12-16T16:27:07.554Z,14.75
2017-12-16T16:29:33.962Z,14.79
2017-12-16T16:32:00.333Z,14.78
2017-12-16T16:34:26.776Z,14.82
2017-12-16T16:36:53.142Z,14.90
2017-12-16T16:39:19.537Z,14.88
2017-12-16T16:41:46.049Z,14.84
2017-12-16T16:44:12.466Z,14.85
2017-12-16T16:46:38.829Z,14.83
2017-12-16T16:49:05.238Z,14.54
2017-12-16T16:51:31.653Z,14.56
2017-12-16T16:53:58.069Z,14.48
2017-12-16T16:56:24.497Z,14.41
2017-12-16T16:58:50.902Z,14.56
2017-12-16T17:01:17.337Z,14.63
2017-12-16T17:03:44.465Z,14.76
2017-12-16T17:06:10.897Z,14.74
2017-12-16T17:08:37.268Z,14.72
2017-12-16T17:11:04.561Z,14.68
2017-12-16T17:13:31.061Z,14.75
2017-12-16T17:15:57.564Z,14.71
2017-12-16T17:18:24.517Z,14.66
2017-12-16T17:20:50.932Z,14.75
2017-12-16T17:23:17.325Z,14.84
2017-12-16T17:25:43.756Z,14.83
2017-12-16T17:28:10.218Z,14.81
2017-12-16T17:30:36.646Z,14.84
2017-12-16T17:33:03.097Z,14.87
2017-12-16T17:35:29.539Z,14.87
2017-12-16T17:37:55.978Z,14.73
2017-12-16T17:40:22.445Z,14.78
2017-12-16T17:42:48.831Z,14.82
2017-12-16T17:45:15.206Z,14.76
2017-12-16T17:47:41.612Z,14.80
2017-12-16T17:50:08.054Z,14.87
2017-12-16T17:52:34.434Z,14.99
2017-12-16T17:55:00.865Z,14.92
2017-12-16T17:57:27.273Z,14.95
2017-12-16T17:59:53.658Z,14.91
2017-12-16T18:02:20.100Z,14.79
2017-12-16T18:04:46.526Z,14.78
2017-12-16T18:07:12.993Z,14.80
2017-12-16T18:09:39.418Z,14.78
2017-12-16T18:12:05.801Z,14.81
2017-12-16T18:14:32.234Z,14.80
2017-12-16T18:16:58.641Z,14.74
2017-12-16T18:19:25.047Z,14.74
2017-12-16T18:21:51.476Z,14.85
2017-12-16T18:24:17.898Z,14.92
2017-12-16T18:26:44.328Z,14.97
2017-12-16T18:29:11.212Z,14.98
2017-12-16T18:31:37.918Z,15.07
2017-12-16T18:34:05.780Z,15.06
2017-12-16T18:36:33.202Z,15.04
2017-12-16T18:39:01.862Z,14.92
2017-12-16T18:41:28.849Z,14.94
2017-12-16T18:43:56.264Z,14.96
2017-12-16T18:46:22.719Z,14.85
2017-12-16T18:48:50.435Z,14.81
2017-12-16T18:51:18.017Z,14.85
2017-12-16T18:53:44.765Z,14.96
2017-12-16T18:56:11.173Z,15.03
2017-12-16T18:58:37.565Z,15.13
2017-12-16T19:01:04.201Z,15.07
2017-12-16T19:03:30.609Z,15.15
2017-12-16T19:05:57.009Z,15.20
2017-12-16T19:08:23.554Z,15.25
2017-12-16T19:10:50.029Z,15.16
2017-12-16T19:13:16.417Z,15.09
2017-12-16T19:15:42.890Z,15.15
2017-12-16T19:18:09.279Z,15.16
2017-12-16T19:20:35.643Z,15.17
2017-12-16T19:23:02.121Z,15.18
2017-12-16T19:25:28.527Z,15.14
2017-12-16T19:27:54.933Z,15.03
2017-12-16T19:30:21.365Z,15.15
2017-12-16T19:32:47.774Z,15.16
2017-12-16T19:35:14.186Z,15.12
2017-12-16T19:37:40.642Z,14.98
2017-12-16T19:40:07.056Z,14.83
2017-12-16T19:42:34.064Z,14.80
2017-12-16T19:45:00.771Z,14.58
2017-12-16T19:47:27.248Z,14.53
2017-12-16T19:49:53.625Z,14.53
2017-12-16T19:52:20.017Z,14.58
2017-12-16T19:54:46.454Z,14.61
2017-12-16T19:57:12.861Z,14.54
2017-12-16T19:59:39.317Z,14.55
2017-12-16T20:02:05.697Z,14.49
2017-12-16T20:04:32.289Z,14.53
2017-12-16T20:06:58.913Z,14.61
2017-12-16T20:09:25.273Z,14.70
2017-12-16T20:11:51.642Z,14.64
2017-12-16T20:14:18.087Z,14.75
2017-12-16T20:16:44.457Z,14.67
2017-12-16T20:19:10.877Z,14.70
2017-12-16T20:21:37.285Z,14.75
2017-12-16T20:24:03.668Z,14.87
2017-12-16T20:26:30.049Z,14.83
2017-12-16T20:28:56.460Z,14.97
2017-12-16T20:31:22.845Z,14.93
2017-12-16T20:33:49.222Z,14.89
2017-12-16T20:36:15.702Z,14.83
2017-12-16T20:38:42.054Z,14.69
2017-12-16T20:41:08.549Z,14.65
2017-12-16T20:43:35.083Z,14.60
2017-12-16T20:46:01.549Z,14.49
2017-12-16T20:48:28.006Z,14.44
2017-12-16T20:50:54.458Z,14.33
2017-12-16T20:53:20.998Z,14.38
2017-12-16T20:55:47.385Z,14.36
2017-12-16T20:58:13.893Z,14.45
2017-12-16T21:00:40.424Z,14.56
2017-12-16T21:03:06.834Z,14.64
2017-12-16T21:05:33.538Z,14.62
2017-12-16T21:07:59.955Z,14.61
2017-12-16T21:10:26.330Z,14.57
2017-12-16T21:12:52.706Z,14.63
2017-12-16T21:15:19.059Z,14.59
2017-12-16T21:17:46.012Z,14.71
2017-12-16T21:20:12.625Z,14.76
2017-12-16T21:22:39.023Z,14.66
2017-12-16T21:25:05.393Z,14.74
2017-12-16T21:27:31.772Z,14.64
2017-12-16T21:29:58.130Z,14.61
2017-12-16T21:32:24.470Z,14.50
2017-12-16T21:35:00.614Z,14.57
2017-12-16T21:37:28.894Z,14.55
2017-12-16T21:39:55.294Z,14.46
2017-12-16T21:42:21.712Z,14.46
2017-12-16T21:44:48.127Z,14.45
2017-12-16T21:47:14.589Z,14.44
2017-12-16T21:49:41.018Z,14.49
2017-12-16T21:52:07.437Z,14.47
2017-12-16T21:54:33.813Z,14.36
2017-12-16T21:57:00.205Z,14.45
2017-12-16T21:59:26.554Z,14.48
2017-12-16T22:01:52.970Z,14.38
2017-12-16T22:04:19.351Z,14.41
2017-12-16T22:06:45.707Z,14.37
2017-12-16T22:09:12.112Z,14.42
2017-12-16T22:11:38.517Z,14.35
2017-12-16T22:14:04.878Z,14.40
2017-12-16T22:16:31.222Z,14.29
2017-12-16T22:18:57.610Z,14.38
2017-12-16T22:21:24.096Z,14.23
2017-12-16T22:23:50.462Z,14.28
2017-12-16T22:26:16.837Z,14.22
2017-12-16T22:28:43.189Z,14.18
2017-12-16T22:31:09.529Z,14.16
2017-12-16T22:33:35.909Z,14.03
2017-12-16T22:36:02.270Z,13.96
2017-12-16T22:38:28.670Z,14.00
2017-12-16T22:40:55.134Z,14.05
2017-12-16T22:43:21.533Z,14.10
2017-12-16T22:45:47.921Z,14.04
2017-12-16T22:48:14.357Z,14.15
2017-12-16T22:50:40.757Z,14.06
2017-12-16T22:53:07.141Z,14.16
2017-12-16T22:55:33.584Z,14.13
2017-12-16T22:58:00.016Z,14.13
2017-12-16T23:00:26.389Z,14.14
2017-12-16T23:02:52.870Z,14.03
2017-12-16T23:05:19.261Z,13.99
2017-12-16T23:07:45.720Z,14.05
2017-12-16T23:10:12.168Z,14.01
2017-12-16T23:12:38.605Z,13.98
2017-12-16T23:15:05.178Z,13.99
2017-12-16T23:17:31.680Z,13.98
2017-12-16T23:19:58.127Z,14.12
2017-12-16T23:22:24.546Z,14.10
2017-12-16T23:24:51.025Z,14.17
2017-12-16T23:27:17.510Z,14.16
2017-12-16T23:29:43.941Z,14.11
2017-12-16T23:32:10.432Z,14.11
2017-12-16T23:34:36.891Z,14.15
2017-12-16T23:37:03.321Z,14.18
2017-12-16T23:39:29.793Z,14.19
2017-12-16T23:41:56.225Z,14.23
2017-12-16T23:44:22.662Z,14.20
2017-12-16T23:46:49.137Z,14.21
2017-12-16T23:49:15.565Z,14.25
2017-12-16T23:51:41.997Z,14.29
2017-12-16T23:54:08.473Z,14.23
2017-12-16T23:56:34.919Z,14.23
2017-12-16T23:59:01.402Z,14.22
